Sacramento, California
Traffic Map
Current Weather Conditions
Sacramento, California
Clear
Clear
22°
Feels Like: 22°
Wind Chill: 22° Ceiling: Unl
Heat Index: 22° Visibility: 10mi
Dew Point: 15° Wind: 6mph
Humidity: 64% Direction: 180° (S)
Pressure: 29.96in Gusts: 0mph
Raw Report DataKSAC 311653Z AUTO 18005KT 10SM CLR 22/15 A2996 RMK AO2 SLP146 T02220150
Traffic Incident Summary
Active as of:
Severity:
Category:
InformationThere was an issue retrieving the traffic information for this location. Please try a different location or try again shortly.
Advertisements
Track Severe Weather on mobile